createdAt,value
2022-10-22T00:01:50.509Z,9.70
2022-10-22T00:04:19.034Z,5.97
2022-10-22T00:06:48.641Z,8.00
2022-10-22T00:09:17.329Z,6.40
2022-10-22T00:11:45.355Z,8.90
2022-10-22T00:14:13.879Z,8.90
2022-10-22T00:16:42.242Z,7.87
2022-10-22T00:19:11.296Z,7.27
2022-10-22T00:21:41.930Z,6.70
2022-10-22T00:24:11.843Z,7.73
2022-10-22T00:26:40.851Z,6.97
2022-10-22T00:29:09.079Z,7.73
2022-10-22T00:31:37.572Z,9.67
2022-10-22T00:34:05.841Z,9.77
2022-10-22T00:36:33.850Z,12.47
2022-10-22T00:39:02.322Z,8.20
2022-10-22T00:41:31.899Z,9.47
2022-10-22T00:44:01.775Z,9.60
2022-10-22T00:46:30.602Z,7.43
2022-10-22T00:49:01.792Z,7.23
2022-10-22T00:51:33.589Z,8.87
2022-10-22T00:54:06.177Z,7.83
2022-10-22T00:56:36.108Z,7.07
2022-10-22T00:59:05.702Z,7.50
2022-10-22T01:01:34.074Z,9.37
2022-10-22T01:04:02.711Z,6.20
2022-10-22T01:06:33.379Z,8.87
2022-10-22T01:09:13.750Z,12.07
2022-10-22T01:11:54.817Z,9.33
2022-10-22T01:14:31.815Z,10.17
2022-10-22T01:17:06.304Z,9.17
2022-10-22T01:19:48.289Z,8.30
2022-10-22T01:22:23.421Z,6.93
2022-10-22T01:24:59.592Z,9.00
2022-10-22T01:27:37.040Z,7.33
2022-10-22T01:30:09.093Z,8.63
2022-10-22T01:32:42.846Z,8.30
2022-10-22T01:35:15.323Z,7.17
2022-10-22T01:37:49.941Z,7.47
2022-10-22T01:40:19.911Z,8.20
2022-10-22T01:42:57.607Z,7.90
2022-10-22T01:45:28.724Z,9.93
2022-10-22T01:48:07.321Z,7.23
2022-10-22T01:51:16.114Z,7.73
2022-10-22T01:53:53.661Z,8.57
2022-10-22T01:56:43.197Z,7.23
2022-10-22T01:59:19.067Z,7.20
2022-10-22T02:01:55.502Z,9.10
2022-10-22T02:04:29.747Z,6.67
2022-10-22T02:07:02.869Z,6.67
2022-10-22T02:09:33.369Z,9.13
2022-10-22T02:12:07.705Z,7.00
2022-10-22T02:14:42.443Z,7.67
2022-10-22T02:17:17.515Z,7.40
2022-10-22T02:19:51.815Z,7.30
2022-10-22T02:22:20.928Z,6.43
2022-10-22T02:24:50.692Z,7.57
2022-10-22T02:27:26.035Z,9.60
2022-10-22T02:30:03.162Z,8.10
2022-10-22T02:32:38.862Z,7.43
2022-10-22T02:35:10.268Z,7.23
2022-10-22T02:37:39.970Z,9.20
2022-10-22T02:40:12.387Z,7.20
2022-10-22T02:42:43.141Z,7.17
2022-10-22T02:45:12.691Z,8.30
2022-10-22T02:47:42.396Z,8.27
2022-10-22T02:50:13.553Z,12.73
2022-10-22T02:52:41.969Z,8.03
2022-10-22T02:55:11.148Z,8.33
2022-10-22T02:57:39.744Z,10.47
2022-10-22T03:00:10.187Z,8.70
2022-10-22T03:02:38.737Z,8.73
2022-10-22T03:05:10.704Z,7.63
2022-10-22T03:07:39.258Z,8.20
2022-10-22T03:10:08.690Z,8.13
2022-10-22T03:12:36.923Z,9.10
2022-10-22T03:15:05.694Z,10.60
2022-10-22T03:17:33.724Z,8.90
2022-10-22T03:20:01.984Z,9.10
2022-10-22T03:22:35.168Z,10.63
2022-10-22T03:25:09.648Z,9.83
2022-10-22T03:27:39.214Z,11.63
2022-10-22T03:30:12.118Z,8.73
2022-10-22T03:32:43.185Z,8.50
2022-10-22T03:35:14.445Z,10.13
2022-10-22T03:37:44.175Z,8.93
2022-10-22T03:40:13.917Z,8.47
2022-10-22T03:42:42.977Z,7.97
2022-10-22T03:45:12.722Z,7.73
2022-10-22T03:47:41.667Z,9.47
2022-10-22T03:50:11.483Z,6.53
2022-10-22T03:52:45.482Z,9.93
2022-10-22T03:55:13.703Z,7.97
2022-10-22T03:57:42.115Z,9.10
2022-10-22T04:00:14.287Z,5.93
2022-10-22T04:02:42.483Z,7.53
2022-10-22T04:05:11.342Z,6.17
2022-10-22T04:07:41.357Z,6.23
2022-10-22T04:10:14.444Z,5.57
2022-10-22T04:12:42.749Z,5.97
2022-10-22T04:15:11.799Z,5.40
2022-10-22T04:17:40.241Z,7.43
2022-10-22T04:20:10.123Z,7.73
2022-10-22T04:22:38.884Z,7.73
2022-10-22T04:25:08.735Z,7.23
2022-10-22T04:27:38.910Z,6.23
2022-10-22T04:30:11.003Z,7.10
2022-10-22T04:32:39.047Z,6.40
2022-10-22T04:35:07.879Z,6.63
2022-10-22T04:37:36.150Z,8.20
2022-10-22T04:40:04.817Z,5.97
2022-10-22T04:42:33.175Z,5.87
2022-10-22T04:45:03.035Z,6.73
2022-10-22T04:47:31.241Z,6.03
2022-10-22T04:49:59.327Z,5.83
2022-10-22T04:52:27.519Z,6.83
2022-10-22T04:54:55.592Z,6.93
2022-10-22T04:57:23.869Z,5.13
2022-10-22T04:59:52.324Z,5.30
2022-10-22T05:02:21.786Z,5.80
2022-10-22T05:04:49.969Z,4.87
2022-10-22T05:07:23.140Z,4.60
2022-10-22T05:09:51.699Z,6.77
2022-10-22T05:12:19.829Z,5.33
2022-10-22T05:14:48.201Z,5.70
2022-10-22T05:17:16.342Z,5.83
2022-10-22T05:19:46.065Z,5.33
2022-10-22T05:22:14.233Z,5.10
2022-10-22T05:24:42.319Z,6.93
2022-10-22T05:27:13.743Z,5.90
2022-10-22T05:29:41.861Z,4.57
2022-10-22T05:32:10.310Z,5.03
2022-10-22T05:34:38.755Z,4.93
2022-10-22T05:37:08.540Z,5.07
2022-10-22T05:39:37.209Z,6.10
2022-10-22T05:42:05.627Z,6.90
2022-10-22T05:44:33.737Z,5.83
2022-10-22T05:47:02.446Z,4.43
2022-10-22T05:49:33.979Z,4.90
2022-10-22T05:52:02.133Z,4.63
2022-10-22T05:54:32.242Z,4.20
2022-10-22T05:57:00.709Z,4.53
2022-10-22T05:59:29.112Z,4.40
2022-10-22T06:01:57.550Z,5.00
2022-10-22T06:04:26.267Z,5.80
2022-10-22T06:06:55.147Z,5.13
2022-10-22T06:09:26.505Z,4.27
2022-10-22T06:11:57.393Z,4.63
2022-10-22T06:14:26.420Z,6.20
2022-10-22T06:16:55.479Z,6.00
2022-10-22T06:19:26.211Z,3.60
2022-10-22T06:21:54.880Z,4.87
2022-10-22T06:24:23.428Z,4.63
2022-10-22T06:26:51.874Z,4.10
2022-10-22T06:29:21.958Z,3.73
2022-10-22T06:31:50.199Z,3.67
2022-10-22T06:34:21.636Z,4.20
2022-10-22T06:36:51.861Z,3.90
2022-10-22T06:39:20.046Z,3.97
2022-10-22T06:41:48.571Z,5.50
2022-10-22T06:44:18.113Z,4.43
2022-10-22T06:46:50.210Z,4.10
2022-10-22T06:49:19.706Z,3.60
2022-10-22T06:51:51.494Z,5.40
2022-10-22T06:54:19.704Z,4.13
2022-10-22T06:56:48.023Z,4.10
2022-10-22T06:59:16.109Z,3.27
2022-10-22T07:01:44.305Z,5.50
2022-10-22T07:04:13.906Z,3.80
2022-10-22T07:06:41.940Z,4.47
2022-10-22T07:09:10.168Z,5.40
2022-10-22T07:11:41.892Z,6.30
2022-10-22T07:14:10.125Z,5.00
2022-10-22T07:16:38.733Z,4.37
2022-10-22T07:19:07.187Z,4.27
2022-10-22T07:21:36.915Z,5.17
2022-10-22T07:24:05.456Z,4.57
2022-10-22T07:26:33.850Z,4.50
2022-10-22T07:29:02.350Z,3.60
2022-10-22T07:31:31.759Z,4.50
2022-10-22T07:34:00.338Z,5.87
2022-10-22T07:36:28.533Z,3.50
2022-10-22T07:38:59.964Z,3.50
2022-10-22T07:41:29.581Z,3.00
2022-10-22T07:43:58.659Z,3.67
2022-10-22T07:46:28.417Z,4.30
2022-10-22T07:48:56.963Z,3.20
2022-10-22T07:51:25.165Z,4.57
2022-10-22T07:53:53.360Z,4.10
2022-10-22T07:56:23.234Z,4.67
2022-10-22T07:58:51.450Z,3.70
2022-10-22T08:01:19.890Z,3.90
2022-10-22T08:03:49.096Z,3.50
2022-10-22T08:06:17.935Z,6.27
2022-10-22T08:08:47.042Z,3.47
2022-10-22T08:11:15.416Z,3.50
2022-10-22T08:13:45.912Z,3.47
2022-10-22T08:16:15.355Z,3.27
2022-10-22T08:18:46.415Z,3.50
2022-10-22T08:21:14.921Z,3.67
2022-10-22T08:23:43.057Z,5.27
2022-10-22T08:26:12.371Z,3.67
2022-10-22T08:28:40.995Z,4.07
2022-10-22T08:31:11.693Z,3.77
2022-10-22T08:33:40.238Z,4.90
2022-10-22T08:36:09.209Z,4.93
2022-10-22T08:38:37.601Z,4.37
2022-10-22T08:41:13.431Z,4.20
2022-10-22T08:44:15.774Z,4.90
2022-10-22T08:47:10.911Z,3.90
2022-10-22T08:49:43.619Z,4.63
2022-10-22T08:52:16.579Z,4.30
2022-10-22T08:54:53.100Z,4.63
2022-10-22T08:57:34.548Z,4.03
2022-10-22T09:00:06.529Z,4.53
2022-10-22T09:02:48.160Z,4.90
2022-10-22T09:05:29.369Z,4.20
2022-10-22T09:07:58.573Z,3.80
2022-10-22T09:10:30.923Z,5.03
2022-10-22T09:12:59.506Z,5.57
2022-10-22T09:15:28.222Z,5.10
2022-10-22T09:18:07.764Z,5.83
2022-10-22T09:20:43.679Z,5.73
2022-10-22T09:23:25.905Z,6.47
2022-10-22T09:25:55.572Z,5.27
2022-10-22T09:28:25.882Z,6.43
2022-10-22T09:30:54.474Z,5.70
2022-10-22T09:33:27.604Z,5.30
2022-10-22T09:35:59.416Z,5.90
2022-10-22T09:38:30.519Z,6.40
2022-10-22T09:41:01.477Z,4.67
2022-10-22T09:43:29.683Z,4.70
2022-10-22T09:45:59.276Z,4.97
2022-10-22T09:48:34.834Z,4.57
2022-10-22T09:51:08.177Z,4.30
2022-10-22T09:53:39.805Z,4.17
2022-10-22T09:56:11.689Z,3.73
2022-10-22T09:58:45.291Z,4.63
2022-10-22T10:01:20.595Z,3.73
2022-10-22T10:03:51.671Z,4.67
2022-10-22T10:06:20.914Z,5.20
2022-10-22T10:08:50.131Z,3.30
2022-10-22T10:11:28.924Z,3.17
2022-10-22T10:14:09.811Z,5.67
2022-10-22T10:16:44.566Z,3.73
2022-10-22T10:19:42.140Z,3.83
2022-10-22T10:22:23.888Z,3.30
2022-10-22T10:25:08.345Z,3.40
2022-10-22T10:27:40.076Z,3.83
2022-10-22T10:30:16.206Z,3.77
2022-10-22T10:33:07.292Z,3.40
2022-10-22T10:35:47.316Z,3.00
2022-10-22T10:38:37.259Z,3.70
2022-10-22T10:41:18.382Z,4.47
2022-10-22T10:43:59.737Z,4.23
2022-10-22T10:46:37.834Z,4.23
2022-10-22T10:49:11.638Z,4.07
2022-10-22T10:51:48.257Z,6.53
2022-10-22T10:54:33.594Z,4.73
2022-10-22T10:57:06.156Z,4.33
2022-10-22T10:59:46.631Z,4.20
2022-10-22T11:02:46.254Z,7.70
2022-10-22T11:05:28.747Z,8.97
2022-10-22T11:08:02.446Z,4.13
2022-10-22T11:10:38.559Z,5.63
2022-10-22T11:13:15.186Z,4.73
2022-10-22T11:15:47.742Z,4.40
2022-10-22T11:18:21.926Z,4.10
2022-10-22T11:20:56.612Z,3.37
2022-10-22T11:23:33.978Z,3.50
2022-10-22T11:26:03.817Z,3.60
2022-10-22T11:28:36.801Z,3.87
2022-10-22T11:31:11.032Z,3.40
2022-10-22T11:33:47.407Z,3.70
2022-10-22T11:36:17.129Z,3.93
2022-10-22T11:38:46.930Z,4.27
2022-10-22T11:41:18.439Z,3.50
2022-10-22T11:44:09.824Z,3.40
2022-10-22T11:46:57.302Z,3.27
2022-10-22T11:49:28.698Z,3.30
2022-10-22T11:52:25.489Z,3.03
2022-10-22T11:54:58.300Z,3.27
2022-10-22T11:57:37.884Z,4.17
2022-10-22T12:00:12.296Z,6.53
2022-10-22T12:02:45.552Z,2.90
2022-10-22T12:05:36.132Z,3.03
2022-10-22T12:08:17.823Z,5.10
2022-10-22T12:11:05.776Z,5.43
2022-10-22T12:13:52.535Z,3.87
2022-10-22T12:16:32.291Z,4.20
2022-10-22T12:19:17.397Z,6.47
2022-10-22T12:21:49.776Z,4.80
2022-10-22T12:24:23.702Z,5.00
2022-10-22T12:26:53.463Z,11.93
2022-10-22T12:29:25.809Z,4.37
2022-10-22T12:31:54.121Z,3.63
2022-10-22T12:34:28.720Z,5.43
2022-10-22T12:36:57.237Z,5.03
2022-10-22T12:39:28.418Z,4.40
2022-10-22T12:41:58.061Z,4.17
2022-10-22T12:44:26.141Z,3.43
2022-10-22T12:46:57.017Z,5.30
2022-10-22T12:49:35.701Z,3.67
2022-10-22T12:52:08.673Z,4.30
2022-10-22T12:54:41.264Z,3.40
2022-10-22T12:57:16.061Z,3.70
2022-10-22T12:59:50.044Z,4.17
2022-10-22T13:02:22.728Z,4.30
2022-10-22T13:05:17.414Z,5.37
2022-10-22T13:07:49.325Z,4.60
2022-10-22T13:10:23.376Z,5.30
2022-10-22T13:12:56.836Z,3.07
2022-10-22T13:15:37.079Z,5.27
2022-10-22T13:18:07.737Z,3.97
2022-10-22T13:20:37.641Z,3.57
2022-10-22T13:23:07.457Z,3.70
2022-10-22T13:25:37.468Z,2.60
2022-10-22T13:28:21.013Z,3.17
2022-10-22T13:30:54.400Z,2.27
2022-10-22T13:33:27.927Z,3.30
2022-10-22T13:35:57.691Z,2.40
2022-10-22T13:38:27.913Z,2.90
2022-10-22T13:40:56.664Z,2.50
2022-10-22T13:43:27.107Z,3.00
2022-10-22T13:45:59.615Z,2.53
2022-10-22T13:48:29.370Z,2.40
2022-10-22T13:50:57.725Z,2.40
2022-10-22T13:53:28.103Z,2.70
2022-10-22T13:55:56.505Z,2.53
2022-10-22T13:58:26.280Z,2.40
2022-10-22T14:00:57.310Z,2.70
2022-10-22T14:03:29.899Z,2.87
2022-10-22T14:05:58.870Z,2.73
2022-10-22T14:08:28.244Z,2.93
2022-10-22T14:10:56.528Z,2.40
2022-10-22T14:13:26.898Z,2.30
2022-10-22T14:15:55.257Z,2.87
2022-10-22T14:18:28.392Z,2.70
2022-10-22T14:20:59.060Z,3.80
2022-10-22T14:23:29.912Z,3.17
2022-10-22T14:25:58.879Z,4.27
2022-10-22T14:28:31.334Z,2.50
2022-10-22T14:31:00.517Z,3.27
2022-10-22T14:33:32.559Z,3.00
2022-10-22T14:36:01.320Z,4.03
2022-10-22T14:38:29.983Z,3.17
2022-10-22T14:41:00.866Z,3.17
2022-10-22T14:43:31.884Z,2.87
2022-10-22T14:46:00.301Z,4.03
2022-10-22T14:48:28.882Z,3.27
2022-10-22T14:50:57.376Z,2.60
2022-10-22T14:53:25.752Z,3.13
2022-10-22T14:55:57.733Z,2.80
2022-10-22T14:58:26.251Z,2.60
2022-10-22T15:00:55.988Z,5.83
2022-10-22T15:03:24.514Z,4.90
2022-10-22T15:05:56.320Z,2.60
2022-10-22T15:08:24.572Z,4.10
2022-10-22T15:11:03.097Z,3.17
2022-10-22T15:13:31.949Z,4.20
2022-10-22T15:16:02.004Z,3.40
2022-10-22T15:18:30.339Z,2.90
2022-10-22T15:21:00.727Z,2.93
2022-10-22T15:23:29.462Z,3.17
2022-10-22T15:25:58.812Z,4.83
2022-10-22T15:28:27.313Z,3.33
2022-10-22T15:30:56.699Z,3.20
2022-10-22T15:33:26.869Z,3.17
2022-10-22T15:35:55.554Z,4.07
2022-10-22T15:41:05.798Z,4.63
2022-10-22T15:43:34.570Z,4.30
2022-10-22T15:46:14.361Z,4.67
2022-10-22T15:48:46.605Z,4.73
2022-10-22T15:51:17.767Z,4.20
2022-10-22T15:53:46.279Z,3.30
2022-10-22T15:56:14.694Z,4.77
2022-10-22T15:58:43.134Z,5.03
2022-10-22T16:01:15.884Z,6.43
2022-10-22T16:03:45.716Z,4.57
2022-10-22T16:06:14.124Z,4.27
2022-10-22T16:08:42.369Z,3.87
2022-10-22T16:11:11.452Z,4.40
2022-10-22T16:13:39.846Z,5.87
2022-10-22T16:16:09.595Z,3.77
2022-10-22T16:18:38.077Z,4.77
2022-10-22T16:21:07.921Z,3.50
2022-10-22T16:23:36.129Z,3.53
2022-10-22T16:26:04.682Z,3.27
2022-10-22T16:31:09.287Z,3.10
2022-10-22T16:33:43.031Z,5.40
2022-10-22T16:36:18.272Z,3.40
2022-10-22T16:38:46.536Z,4.47
2022-10-22T16:41:17.233Z,3.63
2022-10-22T16:43:48.614Z,5.27
2022-10-22T16:46:18.629Z,4.17
2022-10-22T16:48:47.284Z,4.23
2022-10-22T16:51:20.325Z,4.57
2022-10-22T16:53:48.643Z,4.10
2022-10-22T16:56:17.914Z,6.53
2022-10-22T16:58:47.726Z,3.73
2022-10-22T17:01:18.174Z,9.30
2022-10-22T17:03:46.602Z,5.90
2022-10-22T17:06:16.820Z,4.63
2022-10-22T17:08:45.109Z,4.70
2022-10-22T17:11:17.382Z,5.60
2022-10-22T17:13:46.266Z,6.47
2022-10-22T17:16:16.344Z,12.17
2022-10-22T17:18:47.416Z,7.53
2022-10-22T17:21:17.939Z,8.00
2022-10-22T17:23:46.261Z,9.53
2022-10-22T17:26:17.709Z,8.60
2022-10-22T17:28:45.800Z,13.13
2022-10-22T17:31:19.361Z,8.63
2022-10-22T17:33:49.094Z,12.53
2022-10-22T17:36:19.972Z,5.60
2022-10-22T17:38:51.002Z,5.47
2022-10-22T17:41:21.158Z,7.80
2022-10-22T17:43:49.423Z,10.07
2022-10-22T17:46:20.157Z,7.73
2022-10-22T17:48:51.154Z,6.27
2022-10-22T17:51:21.946Z,9.10
2022-10-22T17:53:51.458Z,4.80
2022-10-22T17:56:21.845Z,11.53
2022-10-22T17:58:50.766Z,12.07
2022-10-22T18:01:22.738Z,12.53
2022-10-22T18:03:51.078Z,11.70
2022-10-22T18:06:21.134Z,8.90
2022-10-22T18:08:49.764Z,7.13
2022-10-22T18:11:21.226Z,6.17
2022-10-22T18:13:51.082Z,10.07
2022-10-22T18:16:19.643Z,8.50
2022-10-22T18:18:48.400Z,6.93
2022-10-22T18:21:17.364Z,11.20
2022-10-22T18:23:47.294Z,10.77
2022-10-22T18:26:17.954Z,6.43
2022-10-22T18:28:49.132Z,7.80
2022-10-22T18:31:19.765Z,9.53
2022-10-22T18:33:48.902Z,7.23
2022-10-22T18:36:19.652Z,6.60
2022-10-22T18:38:51.758Z,5.80
2022-10-22T18:41:20.634Z,6.27
2022-10-22T18:43:52.056Z,10.17
2022-10-22T18:46:20.711Z,6.50
2022-10-22T18:48:49.306Z,7.07
2022-10-22T18:51:17.876Z,8.23
2022-10-22T18:53:58.950Z,9.97
2022-10-22T18:56:35.574Z,8.30
2022-10-22T18:59:03.771Z,8.57
2022-10-22T19:01:34.117Z,9.93
2022-10-22T19:04:02.349Z,9.40
2022-10-22T19:06:34.477Z,4.80
2022-10-22T19:09:06.067Z,6.13
2022-10-22T19:11:36.242Z,4.50
2022-10-22T19:14:04.677Z,4.30
2022-10-22T19:16:35.294Z,5.67
2022-10-22T19:19:06.832Z,8.43
2022-10-22T19:21:35.696Z,4.33
2022-10-22T19:24:04.471Z,6.10
2022-10-22T19:26:33.059Z,6.07
2022-10-22T19:29:03.422Z,8.03
2022-10-22T19:31:32.588Z,7.37
2022-10-22T19:34:02.600Z,8.33
2022-10-22T19:36:32.765Z,5.57
2022-10-22T19:39:01.911Z,5.23
2022-10-22T19:41:31.724Z,6.70
2022-10-22T19:44:02.871Z,5.13
2022-10-22T19:46:33.805Z,6.00
2022-10-22T19:49:03.400Z,5.13
2022-10-22T19:51:33.542Z,4.43
2022-10-22T19:54:03.040Z,4.73
2022-10-22T19:56:31.247Z,4.73
2022-10-22T19:59:00.210Z,3.93
2022-10-22T20:01:31.978Z,5.00
2022-10-22T20:04:01.726Z,4.57
2022-10-22T20:06:30.596Z,6.23
2022-10-22T20:08:58.915Z,6.47
2022-10-22T20:11:29.794Z,4.60
2022-10-22T20:13:58.366Z,5.30
2022-10-22T20:16:30.908Z,5.20
2022-10-22T20:19:01.931Z,7.47
2022-10-22T20:21:30.472Z,7.33
2022-10-22T20:23:59.165Z,4.23
2022-10-22T20:26:29.077Z,4.77
2022-10-22T20:28:58.356Z,8.30
2022-10-22T20:31:29.511Z,4.53
2022-10-22T20:34:01.218Z,6.43
2022-10-22T20:36:31.785Z,8.67
2022-10-22T20:39:02.151Z,5.77
2022-10-22T20:41:30.755Z,5.50
2022-10-22T20:43:59.109Z,7.03
2022-10-22T20:46:29.762Z,9.57
2022-10-22T20:49:02.463Z,6.40
2022-10-22T20:51:30.635Z,6.73
2022-10-22T20:53:59.148Z,4.90
2022-10-22T20:56:28.778Z,5.83
2022-10-22T20:59:04.528Z,5.53
2022-10-22T21:01:34.780Z,7.37
2022-10-22T21:04:05.230Z,6.03
2022-10-22T21:06:34.336Z,5.93
2022-10-22T21:09:02.790Z,5.00
2022-10-22T21:11:30.997Z,5.10
2022-10-22T21:13:59.272Z,5.93
2022-10-22T21:16:27.512Z,24.17
2022-10-22T21:18:55.917Z,7.77
2022-10-22T21:21:25.635Z,7.13
2022-10-22T21:23:53.876Z,7.67
2022-10-22T21:26:22.244Z,8.90
2022-10-22T21:28:50.404Z,7.63
2022-10-22T21:31:24.596Z,6.77
2022-10-22T21:33:54.083Z,5.80
2022-10-22T21:36:23.613Z,5.27
2022-10-22T21:38:54.011Z,4.80
2022-10-22T21:41:24.631Z,6.10
2022-10-22T21:43:53.135Z,9.73
2022-10-22T21:46:23.609Z,5.60
2022-10-22T21:48:55.239Z,7.83
2022-10-22T21:51:25.558Z,6.97
2022-10-22T21:53:55.252Z,7.33
2022-10-22T21:56:25.625Z,5.20
2022-10-22T21:58:54.442Z,5.83
2022-10-22T22:01:23.350Z,6.17
2022-10-22T22:03:52.537Z,7.70
2022-10-22T22:06:22.674Z,10.53
2022-10-22T22:08:51.695Z,9.87
2022-10-22T22:11:23.413Z,8.73
2022-10-22T22:13:52.025Z,10.00
2022-10-22T22:16:27.082Z,9.67
2022-10-22T22:18:57.394Z,9.20
2022-10-22T22:21:25.940Z,8.87
2022-10-22T22:23:54.114Z,10.77
2022-10-22T22:26:30.097Z,11.97
2022-10-22T22:28:59.978Z,9.90
2022-10-22T22:31:30.554Z,9.00
2022-10-22T22:34:02.573Z,10.73
2022-10-22T22:36:35.110Z,9.33
2022-10-22T22:39:03.891Z,10.33
2022-10-22T22:41:34.190Z,9.20
2022-10-22T22:44:02.435Z,7.63
2022-10-22T22:46:30.799Z,9.27
2022-10-22T22:48:59.268Z,8.60
2022-10-22T22:51:27.466Z,9.47
2022-10-22T22:53:55.870Z,7.97
2022-10-22T22:56:28.085Z,11.33
2022-10-22T22:58:58.849Z,9.87
2022-10-22T23:01:29.420Z,9.67
2022-10-22T23:03:59.839Z,8.67
2022-10-22T23:06:30.350Z,8.30
2022-10-22T23:08:59.104Z,11.30
2022-10-22T23:11:28.863Z,12.57
2022-10-22T23:14:00.674Z,13.50
2022-10-22T23:16:31.703Z,10.93
2022-10-22T23:19:01.431Z,10.43
2022-10-22T23:21:31.479Z,11.27
2022-10-22T23:24:03.012Z,11.77
2022-10-22T23:26:33.663Z,13.43
2022-10-22T23:29:06.781Z,15.17
2022-10-22T23:31:35.490Z,12.80
2022-10-22T23:34:03.669Z,13.87
2022-10-22T23:36:31.956Z,14.17
2022-10-22T23:39:00.271Z,12.10
2022-10-22T23:41:28.519Z,12.73
2022-10-22T23:43:56.771Z,12.53
2022-10-22T23:46:26.753Z,11.10
2022-10-22T23:48:55.062Z,9.53
2022-10-22T23:51:23.860Z,9.57
2022-10-22T23:53:56.876Z,10.53
2022-10-22T23:56:25.701Z,10.53
2022-10-22T23:58:55.172Z,9.57
